createdAt,value
2018-09-23T00:02:16.810Z,10.25
2018-09-23T00:04:44.174Z,9.28
2018-09-23T00:07:11.500Z,9.00
2018-09-23T00:09:38.854Z,9.43
2018-09-23T00:12:06.203Z,8.80
2018-09-23T00:14:33.507Z,8.33
2018-09-23T00:17:00.808Z,9.75
2018-09-23T00:19:28.168Z,8.33
2018-09-23T00:21:55.792Z,8.55
2018-09-23T00:24:23.092Z,8.20
2018-09-23T00:26:50.828Z,7.95
2018-09-23T00:29:23.420Z,8.10
2018-09-23T00:31:50.808Z,8.03
2018-09-23T00:34:18.210Z,8.48
2018-09-23T00:36:45.763Z,8.50
2018-09-23T00:39:13.140Z,8.50
2018-09-23T00:41:40.467Z,7.20
2018-09-23T00:44:07.847Z,8.60
2018-09-23T00:46:35.186Z,8.38
2018-09-23T00:49:02.552Z,8.83
2018-09-23T00:51:29.880Z,8.25
2018-09-23T00:53:57.748Z,7.83
2018-09-23T00:56:25.060Z,7.58
2018-09-23T00:58:52.368Z,7.03
2018-09-23T01:01:19.768Z,7.80
2018-09-23T01:03:47.093Z,8.93
2018-09-23T01:06:15.052Z,8.30
2018-09-23T01:08:42.397Z,7.10
2018-09-23T01:11:09.728Z,6.75
2018-09-23T01:13:37.083Z,7.50
2018-09-23T01:16:04.894Z,6.85
2018-09-23T01:18:32.201Z,7.70
2018-09-23T01:20:59.946Z,8.63
2018-09-23T01:23:27.282Z,7.80
2018-09-23T01:25:54.606Z,7.50
2018-09-23T01:28:21.920Z,8.08
2018-09-23T01:30:49.242Z,6.95
2018-09-23T01:33:16.555Z,6.87
2018-09-23T01:35:43.933Z,7.35
2018-09-23T01:38:11.268Z,6.97
2018-09-23T01:40:38.666Z,7.00
2018-09-23T01:43:06.342Z,6.95
2018-09-23T01:45:33.646Z,7.35
2018-09-23T01:48:01.281Z,7.03
2018-09-23T01:50:28.567Z,6.90
2018-09-23T01:52:55.877Z,7.17
2018-09-23T01:55:23.281Z,6.53
2018-09-23T01:57:50.568Z,7.03
2018-09-23T02:00:17.881Z,7.10
2018-09-23T02:02:45.222Z,6.15
2018-09-23T02:05:12.503Z,7.70
2018-09-23T02:07:39.890Z,6.00
2018-09-23T02:10:07.467Z,6.50
2018-09-23T02:12:35.046Z,6.85
2018-09-23T02:15:02.418Z,6.50
2018-09-23T02:17:29.729Z,6.50
2018-09-23T02:19:57.024Z,6.33
2018-09-23T02:22:24.556Z,6.67
2018-09-23T02:24:51.869Z,7.12
2018-09-23T02:27:19.172Z,6.15
2018-09-23T02:29:46.526Z,6.42
2018-09-23T02:32:13.970Z,5.55
2018-09-23T02:34:41.341Z,6.17
2018-09-23T02:37:08.691Z,7.78
2018-09-23T02:39:36.042Z,6.67
2018-09-23T02:42:03.516Z,6.40
2018-09-23T02:44:30.879Z,5.92
2018-09-23T02:46:58.164Z,6.50
2018-09-23T02:49:25.462Z,6.42
2018-09-23T02:51:52.774Z,6.35
2018-09-23T02:54:20.083Z,5.90
2018-09-23T02:56:47.384Z,5.65
2018-09-23T02:59:14.687Z,6.08
2018-09-23T03:01:41.997Z,6.25
2018-09-23T03:04:09.911Z,5.53
2018-09-23T03:06:37.202Z,6.65
2018-09-23T03:09:05.453Z,6.87
2018-09-23T03:11:32.851Z,6.78
2018-09-23T03:14:00.171Z,7.22
2018-09-23T03:16:27.683Z,6.70
2018-09-23T03:18:55.021Z,7.95
2018-09-23T03:21:22.340Z,7.55
2018-09-23T03:23:49.647Z,7.55
2018-09-23T03:26:16.986Z,7.08
2018-09-23T03:28:44.317Z,7.65
2018-09-23T03:31:12.350Z,6.65
2018-09-23T03:33:39.849Z,7.33
2018-09-23T03:36:07.183Z,6.95
2018-09-23T03:38:34.594Z,7.65
2018-09-23T03:41:01.882Z,7.37
2018-09-23T03:43:29.198Z,7.08
2018-09-23T03:45:56.783Z,7.90
2018-09-23T03:48:24.141Z,6.80
2018-09-23T03:50:51.517Z,8.28
2018-09-23T03:53:18.840Z,7.50
2018-09-23T03:55:46.140Z,7.05
2018-09-23T03:58:14.016Z,7.00
2018-09-23T04:00:41.411Z,7.28
2018-09-23T04:03:08.855Z,7.37
2018-09-23T04:05:36.231Z,6.95
2018-09-23T04:08:03.560Z,7.75
2018-09-23T04:10:30.842Z,6.62
2018-09-23T04:12:58.162Z,7.47
2018-09-23T04:15:25.514Z,9.33
2018-09-23T04:17:52.806Z,7.95
2018-09-23T04:20:20.366Z,7.47
2018-09-23T04:22:50.268Z,8.18
2018-09-23T04:25:18.500Z,8.00
2018-09-23T04:27:46.020Z,9.05
2018-09-23T04:30:13.476Z,8.93
2018-09-23T04:32:40.794Z,7.92
2018-09-23T04:35:08.158Z,8.65
2018-09-23T04:37:35.545Z,8.40
2018-09-23T04:40:02.904Z,9.03
2018-09-23T04:42:30.312Z,8.70
2018-09-23T04:44:58.078Z,8.00
2018-09-23T04:47:25.400Z,8.28
2018-09-23T04:49:53.109Z,8.15
2018-09-23T04:52:20.414Z,7.70
2018-09-23T04:54:47.747Z,7.83
2018-09-23T04:57:15.275Z,8.50
2018-09-23T04:59:42.593Z,8.43
2018-09-23T05:02:09.895Z,8.13
2018-09-23T05:04:37.223Z,9.00
2018-09-23T05:07:04.519Z,7.42
2018-09-23T05:09:31.910Z,8.10
2018-09-23T05:11:59.235Z,8.25
2018-09-23T05:14:26.553Z,8.20
2018-09-23T05:16:53.936Z,9.38
2018-09-23T05:19:21.377Z,8.38
2018-09-23T05:21:48.726Z,7.05
2018-09-23T05:24:16.059Z,8.88
2018-09-23T05:26:43.385Z,8.35
2018-09-23T05:29:10.699Z,8.40
2018-09-23T05:31:38.021Z,8.10
2018-09-23T05:34:05.351Z,8.60
2018-09-23T05:36:32.904Z,10.93
2018-09-23T05:39:00.204Z,8.80
2018-09-23T05:41:27.502Z,8.40
2018-09-23T05:43:54.921Z,8.35
2018-09-23T05:46:22.190Z,7.72
2018-09-23T05:48:49.487Z,8.38
2018-09-23T05:51:16.813Z,9.03
2018-09-23T05:53:44.185Z,7.85
2018-09-23T05:56:11.593Z,8.33
2018-09-23T05:58:38.914Z,8.63
2018-09-23T06:01:06.726Z,8.78
2018-09-23T06:03:34.060Z,8.50
2018-09-23T06:06:01.720Z,8.60
2018-09-23T06:08:29.030Z,8.70
2018-09-23T06:10:56.327Z,8.23
2018-09-23T06:13:23.703Z,8.75
2018-09-23T06:15:51.024Z,9.23
2018-09-23T06:18:18.482Z,8.80
2018-09-23T06:20:46.365Z,9.85
2018-09-23T06:23:13.745Z,8.58
2018-09-23T06:25:41.075Z,8.73
2018-09-23T06:28:08.468Z,9.08
2018-09-23T06:30:35.749Z,8.08
2018-09-23T06:33:03.143Z,8.75
2018-09-23T06:35:30.460Z,9.23
2018-09-23T06:37:58.141Z,7.62
2018-09-23T06:40:25.594Z,8.25
2018-09-23T06:42:53.667Z,9.13
2018-09-23T06:45:21.058Z,8.63
2018-09-23T06:47:48.968Z,8.83
2018-09-23T06:50:16.291Z,7.67
2018-09-23T06:52:43.676Z,8.98
2018-09-23T06:55:11.042Z,9.05
2018-09-23T06:57:38.363Z,10.03
2018-09-23T07:00:05.777Z,9.35
2018-09-23T07:02:33.075Z,8.48
2018-09-23T07:05:00.496Z,8.98
2018-09-23T07:07:28.030Z,9.65
2018-09-23T07:09:55.453Z,8.80
2018-09-23T07:12:22.764Z,8.68
2018-09-23T07:14:50.117Z,9.55
2018-09-23T07:17:17.407Z,9.70
2018-09-23T07:19:44.733Z,8.68
2018-09-23T07:22:12.011Z,8.60
2018-09-23T07:24:39.422Z,8.65
2018-09-23T07:27:07.012Z,8.83
2018-09-23T07:29:34.346Z,8.98
2018-09-23T07:32:01.683Z,9.28
2018-09-23T07:34:29.218Z,8.68
2018-09-23T07:36:56.623Z,9.05
2018-09-23T07:39:23.884Z,9.80
2018-09-23T07:41:51.213Z,8.85
2018-09-23T07:44:18.564Z,8.73
2018-09-23T07:46:45.854Z,9.40
2018-09-23T07:49:13.201Z,9.08
2018-09-23T07:51:40.498Z,10.10
2018-09-23T07:54:07.892Z,9.70
2018-09-23T07:56:36.082Z,10.00
2018-09-23T07:59:03.295Z,9.50
2018-09-23T08:01:30.668Z,9.35
2018-09-23T08:03:57.981Z,9.65
2018-09-23T08:06:25.442Z,12.00
2018-09-23T08:08:52.789Z,8.50
2018-09-23T08:11:20.821Z,9.78
2018-09-23T08:13:48.436Z,10.68
2018-09-23T08:16:15.631Z,10.35
2018-09-23T08:18:43.023Z,9.50
2018-09-23T08:21:10.445Z,9.08
2018-09-23T08:23:37.825Z,9.10
2018-09-23T08:26:05.155Z,10.30
2018-09-23T08:28:32.521Z,9.70
2018-09-23T08:30:59.847Z,8.53
2018-09-23T08:33:27.132Z,9.28
2018-09-23T08:35:54.585Z,9.50
2018-09-23T08:38:21.893Z,8.30
2018-09-23T08:40:49.194Z,9.15
2018-09-23T08:43:16.580Z,8.75
2018-09-23T08:45:44.479Z,7.90
2018-09-23T08:48:11.843Z,8.33
2018-09-23T08:50:39.161Z,7.65
2018-09-23T08:53:06.544Z,7.95
2018-09-23T08:55:33.883Z,8.20
2018-09-23T08:58:01.178Z,8.48
2018-09-23T09:00:28.535Z,8.78
2018-09-23T09:02:56.035Z,7.40
2018-09-23T09:05:23.304Z,7.70
2018-09-23T09:07:50.718Z,7.30
2018-09-23T09:10:17.998Z,6.92
2018-09-23T09:12:45.335Z,7.30
2018-09-23T09:15:12.635Z,7.85
2018-09-23T09:17:40.018Z,7.60
2018-09-23T09:20:07.557Z,5.95
2018-09-23T09:22:34.917Z,5.90
2018-09-23T09:25:02.317Z,6.62
2018-09-23T09:27:29.633Z,6.28
2018-09-23T09:29:57.016Z,5.90
2018-09-23T09:32:24.318Z,6.05
2018-09-23T09:34:51.727Z,6.50
2018-09-23T09:37:19.032Z,6.42
2018-09-23T09:39:46.335Z,5.67
2018-09-23T09:42:13.734Z,5.45
2018-09-23T09:44:41.452Z,5.87
2018-09-23T09:47:09.169Z,7.10
2018-09-23T09:49:36.576Z,5.33
2018-09-23T09:52:03.950Z,5.80
2018-09-23T09:54:31.268Z,5.40
2018-09-23T09:56:58.577Z,5.92
2018-09-23T09:59:25.928Z,6.12
2018-09-23T10:01:53.267Z,5.47
2018-09-23T10:04:20.575Z,6.12
2018-09-23T10:06:47.974Z,5.50
2018-09-23T10:09:15.278Z,5.53
2018-09-23T10:11:42.843Z,5.40
2018-09-23T10:14:10.162Z,5.85
2018-09-23T10:16:37.547Z,5.62
2018-09-23T10:19:04.896Z,5.05
2018-09-23T10:21:32.194Z,5.47
2018-09-23T10:23:59.600Z,4.60
2018-09-23T10:26:26.944Z,4.92
2018-09-23T10:28:54.265Z,5.72
2018-09-23T10:31:21.631Z,5.72
2018-09-23T10:33:48.923Z,5.45
2018-09-23T10:36:16.288Z,5.45
2018-09-23T10:38:43.612Z,5.25
2018-09-23T10:41:11.135Z,5.55
2018-09-23T10:43:38.463Z,4.97
2018-09-23T10:46:05.859Z,4.60
2018-09-23T10:48:33.196Z,4.90
2018-09-23T10:51:00.541Z,5.67
2018-09-23T10:53:27.861Z,5.35
2018-09-23T10:55:55.375Z,6.47
2018-09-23T10:58:22.847Z,6.03
2018-09-23T11:00:50.146Z,6.50
2018-09-23T11:03:17.495Z,6.50
2018-09-23T11:05:44.872Z,5.50
2018-09-23T11:08:12.205Z,8.55
2018-09-23T11:10:39.574Z,9.93
2018-09-23T11:13:06.922Z,9.03
2018-09-23T11:15:34.244Z,10.95
2018-09-23T11:18:01.616Z,12.60
2018-09-23T11:20:28.981Z,9.98
2018-09-23T11:22:56.307Z,10.23
2018-09-23T11:25:23.655Z,11.93
2018-09-23T11:27:51.014Z,10.98
2018-09-23T11:30:18.350Z,11.85
2018-09-23T11:32:46.112Z,11.57
2018-09-23T11:35:13.466Z,12.55
2018-09-23T11:37:40.754Z,12.15
2018-09-23T11:40:08.635Z,12.20
2018-09-23T11:42:35.901Z,11.35
2018-09-23T11:45:03.355Z,11.70
2018-09-23T11:47:30.647Z,10.65
2018-09-23T11:49:58.504Z,10.43
2018-09-23T11:52:25.881Z,11.08
2018-09-23T11:54:53.187Z,10.30
2018-09-23T11:57:21.498Z,10.65
2018-09-23T11:59:48.859Z,9.00
2018-09-23T12:02:16.308Z,9.33
2018-09-23T12:04:43.698Z,9.78
2018-09-23T12:07:11.062Z,9.60
2018-09-23T12:09:38.377Z,9.73
2018-09-23T12:12:05.698Z,9.43
2018-09-23T12:14:33.008Z,9.50
2018-09-23T12:17:00.635Z,9.15
2018-09-23T12:19:27.965Z,9.58
2018-09-23T12:21:55.326Z,11.22
2018-09-23T12:24:22.734Z,9.73
2018-09-23T12:26:50.090Z,9.05
2018-09-23T12:29:17.475Z,9.05
2018-09-23T12:31:44.792Z,8.15
2018-09-23T12:34:12.070Z,7.95
2018-09-23T12:36:39.385Z,8.30
2018-09-23T12:39:08.617Z,9.13
2018-09-23T12:41:35.947Z,8.33
2018-09-23T12:44:03.408Z,7.35
2018-09-23T12:46:30.708Z,7.50
2018-09-23T12:48:58.147Z,7.47
2018-09-23T12:51:25.504Z,7.53
2018-09-23T12:53:52.819Z,7.00
2018-09-23T12:56:20.115Z,8.03
2018-09-23T12:58:47.516Z,8.10
2018-09-23T13:01:14.878Z,7.90
2018-09-23T13:03:42.221Z,7.87
2018-09-23T13:06:09.519Z,7.58
2018-09-23T13:08:36.875Z,8.98
2018-09-23T13:11:04.259Z,8.00
2018-09-23T13:13:31.567Z,8.18
2018-09-23T13:15:59.159Z,7.00
2018-09-23T13:18:26.629Z,8.00
2018-09-23T13:20:53.908Z,9.30
2018-09-23T13:23:21.252Z,7.78
2018-09-23T13:25:48.559Z,7.90
2018-09-23T13:28:16.032Z,8.88
2018-09-23T13:30:43.372Z,7.53
2018-09-23T13:33:10.726Z,8.08
2018-09-23T13:35:38.079Z,9.23
2018-09-23T13:38:05.392Z,8.98
2018-09-23T13:40:32.704Z,7.83
2018-09-23T13:43:00.315Z,8.75
2018-09-23T13:45:27.716Z,8.38
2018-09-23T13:47:55.009Z,8.85
2018-09-23T13:50:22.369Z,7.33
2018-09-23T13:52:49.629Z,6.50
2018-09-23T13:55:16.950Z,7.12
2018-09-23T13:57:44.340Z,7.72
2018-09-23T14:00:11.764Z,6.97
2018-09-23T14:02:39.147Z,6.97
2018-09-23T14:05:06.593Z,7.42
2018-09-23T14:07:33.851Z,8.15
2018-09-23T14:10:01.291Z,7.75
2018-09-23T14:12:28.604Z,7.78
2018-09-23T14:14:55.977Z,6.92
2018-09-23T14:17:23.294Z,7.65
2018-09-23T14:19:50.700Z,8.88
2018-09-23T14:22:18.055Z,9.60
2018-09-23T14:24:45.672Z,7.30
2018-09-23T14:27:12.970Z,8.43
2018-09-23T14:29:40.274Z,8.35
2018-09-23T14:32:07.626Z,8.90
2018-09-23T14:34:34.947Z,10.18
2018-09-23T14:37:02.281Z,8.80
2018-09-23T14:39:29.584Z,8.20
2018-09-23T14:41:57.030Z,8.20
2018-09-23T14:44:24.406Z,7.92
2018-09-23T14:46:51.715Z,8.38
2018-09-23T14:49:19.208Z,7.85
2018-09-23T14:51:46.622Z,7.53
2018-09-23T14:54:14.039Z,7.78
2018-09-23T14:56:41.318Z,6.85
2018-09-23T14:59:09.347Z,7.70
2018-09-23T15:01:36.697Z,7.35
2018-09-23T15:04:04.051Z,7.40
2018-09-23T15:06:31.422Z,6.50
2018-09-23T15:08:58.777Z,6.90
2018-09-23T15:11:26.080Z,6.37
2018-09-23T15:13:53.422Z,6.28
2018-09-23T15:16:20.687Z,6.60
2018-09-23T15:18:48.060Z,7.40
2018-09-23T15:21:15.419Z,6.83
2018-09-23T15:23:42.700Z,6.42
2018-09-23T15:26:10.110Z,5.25
2018-09-23T15:28:37.418Z,5.62
2018-09-23T15:31:04.768Z,6.40
2018-09-23T15:33:32.210Z,7.00
2018-09-23T15:35:59.963Z,5.50
2018-09-23T15:38:27.291Z,6.92
2018-09-23T15:40:54.633Z,5.75
2018-09-23T15:43:22.053Z,4.62
2018-09-23T15:45:49.411Z,4.90
2018-09-23T15:48:16.828Z,4.85
2018-09-23T15:50:44.103Z,4.15
2018-09-23T15:53:11.785Z,4.25
2018-09-23T15:55:39.126Z,5.60
2018-09-23T15:58:06.506Z,5.90
2018-09-23T16:00:33.879Z,5.03
2018-09-23T16:03:01.315Z,5.08
2018-09-23T16:05:29.047Z,4.95
2018-09-23T16:07:56.405Z,3.90
2018-09-23T16:10:23.687Z,3.95
2018-09-23T16:12:51.017Z,4.00
2018-09-23T16:15:18.391Z,3.50
2018-09-23T16:17:45.793Z,3.42
2018-09-23T16:20:13.589Z,3.87
2018-09-23T16:22:40.900Z,3.40
2018-09-23T16:25:08.267Z,3.50
2018-09-23T16:27:35.621Z,2.55
2018-09-23T16:30:02.952Z,2.83
2018-09-23T16:32:30.249Z,3.25
2018-09-23T16:34:57.624Z,2.87
2018-09-23T16:37:24.933Z,3.05
2018-09-23T16:39:52.348Z,2.80
2018-09-23T16:42:19.684Z,2.42
2018-09-23T16:44:47.000Z,3.75
2018-09-23T16:47:14.826Z,3.00
2018-09-23T16:49:42.187Z,3.08
2018-09-23T16:52:09.510Z,40.85
2018-09-23T16:54:36.924Z,50.15
2018-09-23T16:57:04.265Z,9.68
2018-09-23T16:59:31.600Z,4.80
2018-09-23T17:01:58.948Z,3.67
2018-09-23T17:04:26.272Z,3.60
2018-09-23T17:06:53.559Z,3.72
2018-09-23T17:09:20.871Z,4.00
2018-09-23T17:11:48.281Z,5.12
2018-09-23T17:14:15.581Z,3.70
2018-09-23T17:16:43.040Z,3.95
2018-09-23T17:19:10.796Z,4.97
2018-09-23T17:21:38.109Z,5.50
2018-09-23T17:24:05.419Z,5.17
2018-09-23T17:26:32.818Z,5.40
2018-09-23T17:29:00.144Z,5.95
2018-09-23T17:31:27.442Z,5.55
2018-09-23T17:33:54.771Z,6.05
2018-09-23T17:36:22.106Z,5.70
2018-09-23T17:38:49.445Z,6.33
2018-09-23T17:41:16.881Z,5.87
2018-09-23T17:43:44.310Z,5.97
2018-09-23T17:46:11.761Z,5.87
2018-09-23T17:48:39.193Z,5.80
2018-09-23T17:51:06.506Z,6.35
2018-09-23T17:53:33.818Z,7.12
2018-09-23T17:56:01.185Z,5.50
2018-09-23T17:58:29.059Z,6.50
2018-09-23T18:00:56.438Z,7.28
2018-09-23T18:03:23.792Z,5.70
2018-09-23T18:05:51.150Z,6.62
2018-09-23T18:08:18.444Z,5.75
2018-09-23T18:10:45.782Z,6.55
2018-09-23T18:13:13.166Z,7.00
2018-09-23T18:15:40.530Z,6.70
2018-09-23T18:18:07.867Z,6.67
2018-09-23T18:20:35.194Z,5.85
2018-09-23T18:23:02.698Z,6.40
2018-09-23T18:25:30.011Z,6.53
2018-09-23T18:27:57.335Z,7.40
2018-09-23T18:30:25.010Z,6.70
2018-09-23T18:32:52.365Z,8.20
2018-09-23T18:35:19.741Z,6.95
2018-09-23T18:37:47.015Z,7.22
2018-09-23T18:40:14.414Z,7.10
2018-09-23T18:42:41.739Z,7.40
2018-09-23T18:45:09.165Z,8.90
2018-09-23T18:47:36.479Z,7.60
2018-09-23T18:50:03.896Z,8.55
2018-09-23T18:52:31.250Z,7.60
2018-09-23T18:55:04.062Z,7.50
2018-09-23T18:57:31.402Z,7.58
2018-09-23T18:59:58.762Z,8.58
2018-09-23T19:02:26.118Z,7.00
2018-09-23T19:04:53.967Z,7.10
2018-09-23T19:07:21.279Z,6.40
2018-09-23T19:09:48.603Z,6.47
2018-09-23T19:12:16.497Z,7.42
2018-09-23T19:14:43.807Z,7.78
2018-09-23T19:17:11.100Z,7.45
2018-09-23T19:19:43.716Z,6.62
2018-09-23T19:23:16.414Z,6.58
2018-09-23T19:25:43.754Z,6.40
2018-09-23T19:28:11.130Z,7.75
2018-09-23T19:30:38.492Z,6.10
2018-09-23T19:33:06.176Z,6.78
2018-09-23T19:35:33.540Z,5.60
2018-09-23T19:38:00.937Z,6.72
2018-09-23T19:40:28.958Z,6.37
2018-09-23T19:42:56.371Z,5.30
2018-09-23T19:45:24.028Z,6.10
2018-09-23T19:47:51.363Z,5.75
2018-09-23T19:50:18.647Z,6.75
2018-09-23T19:52:45.978Z,5.85
2018-09-23T19:55:13.287Z,6.30
2018-09-23T19:57:40.681Z,5.67
2018-09-23T20:00:08.031Z,5.25
2018-09-23T20:02:35.390Z,5.65
2018-09-23T20:05:02.758Z,5.20
2018-09-23T20:07:30.085Z,4.90
2018-09-23T20:09:57.390Z,5.65
2018-09-23T20:12:24.780Z,4.80
2018-09-23T20:14:52.145Z,4.72
2018-09-23T20:17:19.459Z,4.47
2018-09-23T20:19:46.876Z,4.80
2018-09-23T20:22:14.268Z,4.50
2018-09-23T20:24:41.567Z,4.10
2018-09-23T20:27:08.987Z,4.97
2018-09-23T20:29:36.592Z,4.35
2018-09-23T20:32:03.895Z,3.85
2018-09-23T20:34:31.205Z,4.58
2018-09-23T20:36:58.557Z,4.28
2018-09-23T20:39:25.839Z,3.80
2018-09-23T20:41:53.118Z,3.42
2018-09-23T20:44:20.479Z,4.37
2018-09-23T20:46:47.802Z,3.85
2018-09-23T20:49:15.122Z,3.58
2018-09-23T20:51:43.531Z,4.72
2018-09-23T20:54:11.037Z,3.85
2018-09-23T20:56:38.422Z,3.65
2018-09-23T20:59:05.701Z,4.40
2018-09-23T21:01:33.039Z,4.10
2018-09-23T21:04:00.447Z,4.00
2018-09-23T21:06:27.748Z,3.90
2018-09-23T21:08:55.089Z,3.60
2018-09-23T21:11:22.401Z,3.65
2018-09-23T21:13:49.769Z,4.20
2018-09-23T21:16:17.042Z,3.75
2018-09-23T21:18:44.335Z,4.25
2018-09-23T21:21:11.667Z,3.80
2018-09-23T21:23:39.152Z,4.40
2018-09-23T21:26:06.486Z,4.05
2018-09-23T21:28:33.811Z,4.40
2018-09-23T21:31:01.159Z,4.20
2018-09-23T21:33:28.467Z,3.67
2018-09-23T21:35:55.799Z,3.35
2018-09-23T21:38:23.083Z,3.25
2018-09-23T21:40:50.378Z,3.45
2018-09-23T21:43:17.691Z,3.77
2018-09-23T21:45:44.983Z,3.50
2018-09-23T21:48:12.294Z,4.10
2018-09-23T21:50:39.747Z,4.00
2018-09-23T21:53:07.050Z,3.52
2018-09-23T21:55:34.357Z,3.77
2018-09-23T21:58:01.667Z,3.40
2018-09-23T22:00:34.448Z,3.65
2018-09-23T22:03:02.150Z,3.87
2018-09-23T22:05:29.436Z,4.70
2018-09-23T22:07:56.770Z,3.25
2018-09-23T22:10:24.064Z,3.90
2018-09-23T22:12:51.367Z,4.00
2018-09-23T22:15:24.864Z,3.35
2018-09-23T22:17:52.214Z,3.85
2018-09-23T22:20:19.526Z,3.45
2018-09-23T22:22:47.072Z,4.83
2018-09-23T22:25:14.379Z,3.37
2018-09-23T22:27:41.676Z,3.12
2018-09-23T22:30:09.030Z,3.65
2018-09-23T22:32:36.431Z,3.90
2018-09-23T22:35:04.198Z,3.00
2018-09-23T22:37:31.513Z,3.65
2018-09-23T22:39:58.806Z,3.12
2018-09-23T22:42:26.104Z,2.87
2018-09-23T22:44:53.414Z,3.62
2018-09-23T22:47:20.710Z,2.98
2018-09-23T22:49:48.014Z,3.00
2018-09-23T22:52:15.312Z,3.25
2018-09-23T22:54:42.620Z,3.17
2018-09-23T22:57:09.902Z,3.40
2018-09-23T22:59:37.279Z,2.80
2018-09-23T23:02:04.574Z,2.60
2018-09-23T23:04:31.882Z,2.50
2018-09-23T23:06:59.233Z,3.05
2018-09-23T23:09:26.630Z,3.40
2018-09-23T23:11:53.955Z,2.77
2018-09-23T23:14:21.335Z,3.20
2018-09-23T23:16:49.495Z,2.92
2018-09-23T23:19:16.870Z,2.90
2018-09-23T23:21:44.277Z,3.15
2018-09-23T23:24:12.188Z,3.70
2018-09-23T23:26:39.487Z,3.22
2018-09-23T23:29:06.759Z,2.87
2018-09-23T23:31:34.094Z,3.08
2018-09-23T23:34:01.614Z,2.92
2018-09-23T23:36:28.906Z,2.70
2018-09-23T23:38:56.253Z,2.40
2018-09-23T23:41:23.568Z,2.75
2018-09-23T23:43:51.222Z,2.40
2018-09-23T23:46:18.631Z,3.40
2018-09-23T23:48:45.931Z,2.90
2018-09-23T23:51:13.285Z,2.83
2018-09-23T23:53:41.410Z,2.98
2018-09-23T23:56:08.789Z,2.75
2018-09-23T23:58:36.055Z,2.83
